Time;durP1;ratioP1;P1;durP2;ratioP2;P2;SDS_P1;SDS_P2;PMS_P1;PMS_P2;Temp;Humidity;BMP_temperature;BMP_pressure;BME280_temperature;BME280_humidity;BME280_pressure;Samples;Min_cycle;Max_cycle;Signal;HPM_P1;HPM_P2
2022/04/28 00:01:42;;;;;;;2.60;2.35;;;;;;;;;;5012780;28;20038;-80
2022/04/28 00:04:08;;;;;;;2.75;2.55;;;;;;;;;;4995927;28;20132;-81
2022/04/28 00:06:34;;;;;;;2.80;2.60;;;;;;;;;;5013538;28;20451;-81
2022/04/28 00:09:00;;;;;;;2.72;2.40;;;;;;;;;;5015950;28;20149;-80
2022/04/28 00:11:26;;;;;;;2.75;2.55;;;;;;;;;;5017577;28;20093;-81
2022/04/28 00:13:52;;;;;;;2.80;2.50;;;;;;;;;;5018943;28;20042;-81
2022/04/28 00:16:18;;;;;;;3.88;2.60;;;;;;;;;;5018761;28;20038;-81
2022/04/28 00:18:43;;;;;;;2.85;2.38;;;;;;;;;;5000692;28;20128;-79
2022/04/28 00:21:10;;;;;;;3.17;2.75;;;;;;;;;;5013398;28;20046;-81
2022/04/28 00:23:35;;;;;;;3.22;2.67;;;;;;;;;;4996319;28;20042;-81
2022/04/28 00:26:02;;;;;;;3.17;2.90;;;;;;;;;;5000232;28;20114;-81
2022/04/28 00:28:28;;;;;;;2.10;2.00;;;;;;;;;;5014868;28;20485;-81
2022/04/28 00:30:53;;;;;;;2.75;2.55;;;;;;;;;;4994089;28;20038;-80
2022/04/28 00:33:20;;;;;;;2.03;1.92;;;;;;;;;;5013749;28;20037;-81
2022/04/28 00:35:46;;;;;;;2.28;2.17;;;;;;;;;;5010342;28;20080;-79
2022/04/28 00:38:12;;;;;;;2.13;2.03;;;;;;;;;;4994374;28;20038;-80
2022/04/28 00:40:39;;;;;;;1.90;1.80;;;;;;;;;;5011936;28;20072;-81
2022/04/28 00:43:20;;;;;;;2.78;2.17;;;;;;;;;;4995871;28;20129;-80
2022/04/28 00:45:47;;;;;;;2.63;2.17;;;;;;;;;;4979639;28;20129;-81
2022/04/28 00:50:57;;;;;;;2.45;2.30;;;;;;;;;;4996130;28;20050;-81
2022/04/28 00:53:23;;;;;;;3.78;2.90;;;;;;;;;;4988370;28;20046;-81
2022/04/28 00:55:49;;;;;;;2.97;2.78;;;;;;;;;;4976070;28;20061;-80
2022/04/28 00:58:15;;;;;;;2.72;2.53;;;;;;;;;;4991334;28;20161;-80
2022/04/28 01:00:41;;;;;;;2.80;2.70;;;;;;;;;;4974299;28;20444;-80
2022/04/28 01:03:07;;;;;;;2.67;2.50;;;;;;;;;;4974331;28;20418;-79
2022/04/28 01:05:34;;;;;;;3.15;2.88;;;;;;;;;;4991347;28;20038;-80
2022/04/28 01:08:00;;;;;;;2.83;2.63;;;;;;;;;;4991200;28;20050;-81
2022/04/28 01:10:25;;;;;;;3.35;2.65;;;;;;;;;;4974137;28;20101;-80
2022/04/28 01:12:51;;;;;;;3.70;2.90;;;;;;;;;;4990435;28;20046;-79
2022/04/28 01:15:18;;;;;;;2.92;2.72;;;;;;;;;;4990392;28;20462;-76
2022/04/28 01:17:43;;;;;;;3.13;2.83;;;;;;;;;;4973441;28;20034;-76
2022/04/28 01:20:10;;;;;;;2.80;2.60;;;;;;;;;;4969439;28;20451;-76
2022/04/28 01:22:37;;;;;;;3.17;2.92;;;;;;;;;;4973010;28;20077;-75
2022/04/28 01:25:08;;;;;;;2.92;2.72;;;;;;;;;;4973528;28;20060;-74
2022/04/28 01:27:34;;;;;;;3.15;2.90;;;;;;;;;;4973017;28;20030;-76
2022/04/28 01:30:00;;;;;;;3.22;2.60;;;;;;;;;;4989477;28;20474;-75
2022/04/28 01:32:29;;;;;;;3.92;3.13;;;;;;;;;;4989499;28;20038;-76
2022/04/28 01:34:55;;;;;;;3.92;3.63;;;;;;;;;;4991076;28;20053;-76
2022/04/28 01:37:21;;;;;;;3.58;3.30;;;;;;;;;;4989555;28;20465;-75
2022/04/28 01:39:49;;;;;;;3.53;3.15;;;;;;;;;;4973072;28;20109;-74
2022/04/28 01:42:15;;;;;;;3.40;3.20;;;;;;;;;;4989098;28;20396;-75
2022/04/28 01:44:41;;;;;;;3.97;3.67;;;;;;;;;;4989280;28;20047;-75
2022/04/28 01:47:06;;;;;;;4.15;3.70;;;;;;;;;;4998881;28;20058;-75
2022/04/28 01:49:51;;;;;;;4.25;3.95;;;;;;;;;;5009545;28;20636;-75
2022/04/28 01:56:00;;;;;;;5.07;4.57;;;;;;;;;;4979289;28;20470;-78
2022/04/28 01:58:45;;;;;;;5.18;4.38;;;;;;;;;;5009759;28;20038;-79
2022/04/28 02:01:15;;;;;;;7.15;4.60;;;;;;;;;;4974467;28;20050;-79
2022/04/28 02:03:41;;;;;;;5.00;4.35;;;;;;;;;;4992625;28;20049;-79
2022/04/28 02:06:07;;;;;;;5.35;4.93;;;;;;;;;;5009672;28;20045;-78
2022/04/28 02:08:34;;;;;;;3.70;3.40;;;;;;;;;;4994878;28;20510;-78
2022/04/28 02:11:00;;;;;;;3.78;3.47;;;;;;;;;;4991946;28;20041;-76
2022/04/28 02:14:05;;;;;;;3.83;3.63;;;;;;;;;;5009572;28;20104;-76
2022/04/28 02:17:06;;;;;;;3.40;3.20;;;;;;;;;;4982236;28;20154;-79
2022/04/28 02:19:37;;;;;;;3.35;3.08;;;;;;;;;;4993249;28;20053;-79
2022/04/28 02:22:03;;;;;;;3.75;3.22;;;;;;;;;;4993444;28;20053;-79
2022/04/28 02:24:32;;;;;;;6.95;3.05;;;;;;;;;;4980687;28;20084;-78
2022/04/28 02:26:58;;;;;;;3.38;3.17;;;;;;;;;;4995855;28;20077;-77
2022/04/28 02:29:24;;;;;;;3.50;3.22;;;;;;;;;;4996102;28;20533;-77
2022/04/28 02:31:51;;;;;;;5.95;4.15;;;;;;;;;;5012115;28;20041;-79
2022/04/28 02:34:17;;;;;;;3.85;3.45;;;;;;;;;;5013777;28;20510;-79
2022/04/28 02:36:48;;;;;;;;;;;;;;;;;;5013955;28;20096;-79
2022/04/28 02:39:14;;;;;;;3.60;3.30;;;;;;;;;;5026741;28;19913;-79
2022/04/28 02:41:46;;;;;;;10.15;5.13;;;;;;;;;;5013617;28;20069;-79
2022/04/28 02:44:12;;;;;;;3.50;2.90;;;;;;;;;;5013764;28;20462;-82
2022/04/28 02:46:42;;;;;;;4.22;3.05;;;;;;;;;;4995635;28;20530;-80
2022/04/28 02:49:10;;;;;;;7.97;4.38;;;;;;;;;;4995950;28;20065;-79
2022/04/28 02:51:37;;;;;;;8.00;4.03;;;;;;;;;;4996001;28;20069;-79
2022/04/28 02:54:03;;;;;;;3.80;2.90;;;;;;;;;;5012185;28;20096;-78
2022/04/28 02:56:31;;;;;;;3.38;3.17;;;;;;;;;;5012431;28;20042;-80
2022/04/28 02:58:58;;;;;;;3.25;3.05;;;;;;;;;;4996842;28;20533;-82
2022/04/28 03:01:24;;;;;;;3.20;3.00;;;;;;;;;;4981027;28;20030;-80
2022/04/28 03:03:50;;;;;;;3.10;2.80;;;;;;;;;;4995859;28;20050;-81
2022/04/28 03:11:45;;;;;;;3.33;3.03;;;;;;;;;;5012508;28;20049;-82
2022/04/28 03:14:14;;;;;;;2.90;2.70;;;;;;;;;;5014470;28;20510;-82
2022/04/28 03:16:41;;;;;;;3.83;2.90;;;;;;;;;;5012386;28;20038;-81
2022/04/28 03:19:07;;;;;;;7.00;2.80;;;;;;;;;;5012327;28;20046;-80
2022/04/28 03:21:34;;;;;;;3.08;2.50;;;;;;;;;;4995904;28;20046;-80
2022/04/28 03:24:02;;;;;;;4.63;3.53;;;;;;;;;;5012052;28;20394;-81
2022/04/28 03:26:30;;;;;;;3.10;2.80;;;;;;;;;;4995486;28;20037;-79
2022/04/28 03:28:56;;;;;;;2.55;2.45;;;;;;;;;;5011963;28;20068;-80
2022/04/28 03:31:22;;;;;;;4.13;2.50;;;;;;;;;;4994538;28;20135;-81
2022/04/28 03:34:07;;;;;;;2.65;2.45;;;;;;;;;;5014968;28;20056;-81
2022/04/28 03:36:53;;;;;;;3.35;2.50;;;;;;;;;;4998774;28;20057;-81
2022/04/28 03:39:40;;;;;;;2.30;2.10;;;;;;;;;;5013718;28;20100;-81
2022/04/28 03:42:07;;;;;;;2.00;1.90;;;;;;;;;;5000306;28;20046;-82
2022/04/28 03:44:34;;;;;;;2.38;2.20;;;;;;;;;;5023579;28;20053;-84
2022/04/28 03:47:00;;;;;;;2.30;2.20;;;;;;;;;;5014880;28;20112;-83
2022/04/28 03:49:27;;;;;;;2.45;2.20;;;;;;;;;;5027026;28;20072;-82
2022/04/28 03:51:52;;;;;;;2.47;2.28;;;;;;;;;;5008767;28;20045;-82
2022/04/28 03:54:18;;;;;;;6.47;2.38;;;;;;;;;;5018475;28;20050;-82
2022/04/28 03:56:44;;;;;;;3.45;2.30;;;;;;;;;;5022334;28;20045;-80
2022/04/28 03:59:11;;;;;;;2.58;2.38;;;;;;;;;;5006972;28;20034;-82
2022/04/28 04:01:52;;;;;;;2.70;2.50;;;;;;;;;;4998996;28;20046;-81
2022/04/28 04:04:19;;;;;;;2.42;2.33;;;;;;;;;;4999372;28;20073;-81
2022/04/28 04:06:52;;;;;;;2.55;2.40;;;;;;;;;;4998770;28;20050;-82
2022/04/28 04:09:43;;;;;;;3.20;2.60;;;;;;;;;;4987519;28;20064;-82
2022/04/28 04:12:17;;;;;;;2.40;2.20;;;;;;;;;;4980028;28;20045;-82
2022/04/28 04:15:02;;;;;;;2.38;2.17;;;;;;;;;;5014026;28;20030;-81
2022/04/28 04:17:51;;;;;;;3.00;2.80;;;;;;;;;;5013259;28;20144;-81
2022/04/28 04:20:18;;;;;;;2.63;2.42;;;;;;;;;;4995348;28;20045;-81
2022/04/28 04:22:44;;;;;;;5.63;2.47;;;;;;;;;;5013296;28;20049;-81
2022/04/28 04:25:10;;;;;;;3.83;2.47;;;;;;;;;;5000122;28;20045;-81
2022/04/28 04:27:37;;;;;;;2.88;2.67;;;;;;;;;;4996454;28;20042;-84
2022/04/28 04:33:04;;;;;;;2.83;2.40;;;;;;;;;;5022993;28;20509;-84
2022/04/28 04:35:31;;;;;;;2.17;2.08;;;;;;;;;;4983764;28;20633;-83
2022/04/28 04:37:59;;;;;;;2.55;2.13;;;;;;;;;;5014873;28;20038;-82
2022/04/28 04:40:27;;;;;;;5.68;2.42;;;;;;;;;;5010733;28;20049;-83
2022/04/28 04:42:54;;;;;;;3.92;2.85;;;;;;;;;;4992750;28;20080;-81
2022/04/28 04:45:20;;;;;;;6.55;3.33;;;;;;;;;;4995623;28;20651;-82
2022/04/28 04:48:19;;;;;;;4.47;3.85;;;;;;;;;;4988316;28;20046;-83
2022/04/28 04:50:52;;;;;;;5.85;4.38;;;;;;;;;;5011937;28;20073;-82
2022/04/28 04:53:26;;;;;;;2.97;2.67;;;;;;;;;;5003864;28;20045;-78
2022/04/28 04:55:52;;;;;;;4.28;2.90;;;;;;;;;;5016554;28;20069;-85
2022/04/28 04:58:18;;;;;;;3.85;2.70;;;;;;;;;;5004988;28;20046;-83
2022/04/28 05:00:44;;;;;;;3.25;2.22;;;;;;;;;;5014414;28;20057;-84
2022/04/28 05:03:36;;;;;;;2.17;2.08;;;;;;;;;;5007604;28;20038;-83
2022/04/28 05:06:16;;;;;;;4.40;2.40;;;;;;;;;;5011928;28;20077;-82
2022/04/28 05:08:56;;;;;;;2.40;2.17;;;;;;;;;;4979400;28;20053;-82
2022/04/28 05:11:22;;;;;;;2.45;2.20;;;;;;;;;;5008404;28;20084;-83
2022/04/28 05:14:06;;;;;;;2.50;2.25;;;;;;;;;;4998605;28;20116;-78
2022/04/28 05:16:33;;;;;;;6.80;2.90;;;;;;;;;;4973604;28;20121;-78
2022/04/28 05:19:16;;;;;;;2.53;2.03;;;;;;;;;;5000413;28;20073;-79
2022/04/28 05:22:03;;;;;;;5.70;1.95;;;;;;;;;;5004260;28;20045;-79
2022/04/28 05:24:47;;;;;;;2.47;2.28;;;;;;;;;;5011368;28;20133;-79
2022/04/28 05:27:39;;;;;;;3.55;2.30;;;;;;;;;;4987955;28;20178;-78
2022/04/28 05:30:28;;;;;;;3.13;2.30;;;;;;;;;;4981087;28;20054;-75
2022/04/28 05:33:08;;;;;;;2.00;1.90;;;;;;;;;;5007305;28;20442;-76
2022/04/28 05:35:54;;;;;;;2.45;2.20;;;;;;;;;;4995565;28;20074;-78
2022/04/28 05:38:21;;;;;;;2.90;2.50;;;;;;;;;;4992013;28;20069;-79
2022/04/28 05:40:49;;;;;;;2.55;2.40;;;;;;;;;;5009343;28;20112;-74
2022/04/28 05:45:59;;;;;;;3.10;2.60;;;;;;;;;;5002560;28;20038;-78
2022/04/28 05:48:25;;;;;;;2.42;2.20;;;;;;;;;;5003648;28;20058;-76
2022/04/28 05:50:54;;;;;;;2.85;2.13;;;;;;;;;;5000577;28;20042;-76
2022/04/28 05:53:21;;;;;;;2.95;2.13;;;;;;;;;;5012096;28;20041;-74
2022/04/28 05:55:54;;;;;;;2.20;2.10;;;;;;;;;;4991616;28;20537;-80
2022/04/28 05:58:24;;;;;;;1.88;1.77;;;;;;;;;;4992486;28;20071;-78
2022/04/28 06:01:09;;;;;;;2.00;1.90;;;;;;;;;;4987790;28;20065;-75
2022/04/28 06:03:39;;;;;;;2.30;2.20;;;;;;;;;;4978729;28;20085;-76
2022/04/28 06:06:14;;;;;;;2.00;1.90;;;;;;;;;;5006058;28;20487;-76
2022/04/28 06:08:40;;;;;;;2.38;2.10;;;;;;;;;;4975448;28;20054;-75
2022/04/28 06:11:07;;;;;;;3.60;2.17;;;;;;;;;;4991888;28;20430;-75
2022/04/28 06:13:33;;;;;;;2.47;2.10;;;;;;;;;;4991871;28;20399;-75
2022/04/28 06:16:22;;;;;;;2.10;2.00;;;;;;;;;;4976971;28;20053;-80
2022/04/28 06:18:56;;;;;;;1.75;1.65;;;;;;;;;;4991512;28;20073;-78
2022/04/28 06:22:00;;;;;;;2.15;2.05;;;;;;;;;;5009182;28;20065;-80
2022/04/28 06:24:28;;;;;;;2.00;1.90;;;;;;;;;;4990890;28;20088;-80
2022/04/28 06:26:55;;;;;;;2.25;2.08;;;;;;;;;;4983401;28;20062;-75
2022/04/28 06:29:21;;;;;;;4.90;2.30;;;;;;;;;;5029801;28;20061;-77
2022/04/28 06:31:47;;;;;;;6.20;2.35;;;;;;;;;;5013487;28;20041;-74
2022/04/28 06:34:33;;;;;;;1.85;1.42;;;;;;;;;;5009515;28;20042;-76
2022/04/28 06:36:59;;;;;;;3.20;2.30;;;;;;;;;;4989788;28;20049;-76
2022/04/28 06:39:28;;;;;;;4.18;2.28;;;;;;;;;;4991740;28;20191;-74
2022/04/28 06:41:55;;;;;;;2.50;2.08;;;;;;;;;;4974963;28;20042;-73
2022/04/28 06:44:31;;;;;;;2.78;2.40;;;;;;;;;;4976841;28;20049;-78
2022/04/28 06:47:27;;;;;;;2.28;2.08;;;;;;;;;;4942070;28;20063;-75
2022/04/28 06:50:13;;;;;;;2.28;2.17;;;;;;;;;;5003686;28;20057;-74
2022/04/28 06:53:02;;;;;;;2.67;1.75;;;;;;;;;;4979979;28;20076;-74
2022/04/28 06:55:31;;;;;;;3.75;2.20;;;;;;;;;;4984958;28;20411;-74
2022/04/28 06:57:57;;;;;;;3.88;2.30;;;;;;;;;;4977249;28;20046;-74
2022/04/28 07:00:27;;;;;;;3.00;2.23;;;;;;;;;;4978971;28;20034;-74
2022/04/28 07:02:54;;;;;;;2.10;1.80;;;;;;;;;;4977923;28;20035;-74
2022/04/28 07:05:20;;;;;;;5.80;3.83;;;;;;;;;;4997369;28;20057;-74
2022/04/28 07:07:46;;;;;;;4.07;2.47;;;;;;;;;;5001288;28;20054;-73
2022/04/28 07:10:19;;;;;;;3.30;2.53;;;;;;;;;;4989633;28;20058;-74
2022/04/28 07:12:46;;;;;;;3.10;2.30;;;;;;;;;;4987971;28;20529;-74
2022/04/28 07:15:38;;;;;;;2.28;2.08;;;;;;;;;;4982147;28;20042;-74
2022/04/28 07:18:22;;;;;;;2.60;2.40;;;;;;;;;;4999273;28;20526;-73
2022/04/28 07:20:50;;;;;;;2.88;2.30;;;;;;;;;;5000961;28;20038;-75
2022/04/28 07:23:16;;;;;;;3.80;2.40;;;;;;;;;;4984617;28;20122;-73
2022/04/28 07:25:42;;;;;;;8.98;2.15;;;;;;;;;;4998541;28;20120;-74
2022/04/28 07:28:08;;;;;;;4.38;2.60;;;;;;;;;;4982213;28;20046;-74
2022/04/28 07:31:09;;;;;;;3.13;2.33;;;;;;;;;;4948499;28;20046;-74
2022/04/28 07:33:53;;;;;;;1.95;1.77;;;;;;;;;;4996008;28;20034;-74
2022/04/28 07:36:38;;;;;;;5.22;2.50;;;;;;;;;;4998111;28;20049;-73
2022/04/28 07:39:23;;;;;;;2.63;2.42;;;;;;;;;;4998212;28;20077;-74
2022/04/28 07:42:15;;;;;;;5.13;2.60;;;;;;;;;;4988918;28;20140;-76
2022/04/28 07:44:43;;;;;;;2.05;1.95;;;;;;;;;;4977203;28;20505;-77
2022/04/28 07:47:09;;;;;;;2.00;1.90;;;;;;;;;;4993471;28;20057;-73
2022/04/28 07:49:43;;;;;;;6.30;2.75;;;;;;;;;;4993802;28;20058;-74
2022/04/28 07:52:10;;;;;;;2.40;2.28;;;;;;;;;;4975009;28;20039;-73
2022/04/28 07:54:37;;;;;;;2.40;2.15;;;;;;;;;;4991194;28;20061;-73
2022/04/28 07:57:03;;;;;;;2.17;1.98;;;;;;;;;;4959243;28;20046;-74
2022/04/28 07:59:30;;;;;;;2.00;1.90;;;;;;;;;;4970686;28;20049;-73
2022/04/28 08:02:11;;;;;;;2.22;1.92;;;;;;;;;;4990641;28;20137;-74
2022/04/28 08:04:37;;;;;;;2.17;2.05;;;;;;;;;;4990876;28;20133;-74
2022/04/28 08:07:03;;;;;;;4.15;2.45;;;;;;;;;;4974793;28;20419;-75
2022/04/28 08:09:31;;;;;;;2.20;2.10;;;;;;;;;;4990365;28;20474;-73
2022/04/28 08:11:58;;;;;;;4.70;2.88;;;;;;;;;;4975386;28;20050;-73
2022/04/28 08:14:24;;;;;;;2.53;2.22;;;;;;;;;;4974848;28;20053;-73
2022/04/28 08:16:51;;;;;;;2.67;2.47;;;;;;;;;;4991477;28;20066;-72
2022/04/28 08:19:19;;;;;;;2.30;2.20;;;;;;;;;;4974572;28;20522;-73
2022/04/28 08:21:51;;;;;;;3.50;2.40;;;;;;;;;;4974818;28;20093;-72
2022/04/28 08:24:18;;;;;;;6.97;2.75;;;;;;;;;;4990531;28;20046;-73
2022/04/28 08:26:46;;;;;;;4.70;1.95;;;;;;;;;;4994830;28;20426;-73
2022/04/28 08:29:11;;;;;;;3.83;2.45;;;;;;;;;;4993423;28;20085;-73
2022/04/28 08:31:45;;;;;;;2.33;2.20;;;;;;;;;;4992971;28;20112;-74
2022/04/28 08:34:15;;;;;;;7.32;5.05;;;;;;;;;;4993865;28;20049;-74
2022/04/28 08:36:42;;;;;;;2.70;2.50;;;;;;;;;;5010114;28;20042;-78
2022/04/28 08:39:08;;;;;;;1.45;1.33;;;;;;;;;;4977417;28;20045;-78
2022/04/28 08:41:42;;;;;;;2.85;2.10;;;;;;;;;;4961744;28;20065;-77
2022/04/28 08:44:17;;;;;;;2.65;2.28;;;;;;;;;;5011112;28;20104;-77
2022/04/28 08:46:51;;;;;;;3.45;2.40;;;;;;;;;;4993704;28;20116;-79
2022/04/28 08:49:20;;;;;;;2.50;1.88;;;;;;;;;;4993350;28;20054;-78
2022/04/28 08:51:53;;;;;;;2.30;2.15;;;;;;;;;;4993381;28;20045;-77
2022/04/28 08:54:19;;;;;;;2.33;2.20;;;;;;;;;;4993331;28;20053;-78
2022/04/28 08:56:45;;;;;;;3.72;2.00;;;;;;;;;;4993636;28;20037;-78
2022/04/28 08:59:14;;;;;;;5.28;2.47;;;;;;;;;;4993177;28;20045;-77
2022/04/28 09:01:40;;;;;;;2.60;2.10;;;;;;;;;;4993548;28;20034;-78
2022/04/28 09:04:29;;;;;;;2.38;2.08;;;;;;;;;;5002580;28;20061;-78
2022/04/28 09:07:14;;;;;;;6.28;2.05;;;;;;;;;;5009293;28;20112;-79
2022/04/28 09:10:25;;;;;;;2.10;2.00;;;;;;;;;;5005745;28;20124;-78
2022/04/28 09:16:12;;;;;;;1.67;1.63;;;;;;;;;;5009318;28;20041;-79
2022/04/28 09:18:38;;;;;;;2.38;2.17;;;;;;;;;;4977278;28;20050;-78
2022/04/28 09:21:04;;;;;;;4.07;2.08;;;;;;;;;;5009331;28;20096;-77
2022/04/28 09:23:31;;;;;;;2.53;2.05;;;;;;;;;;4992926;28;20052;-79
2022/04/28 09:25:57;;;;;;;2.20;1.80;;;;;;;;;;4992991;28;20046;-79
2022/04/28 09:28:23;;;;;;;3.58;1.77;;;;;;;;;;4959422;28;20042;-78
2022/04/28 09:30:50;;;;;;;2.00;1.90;;;;;;;;;;4973007;28;20057;-78
2022/04/28 09:33:49;;;;;;;2.75;1.85;;;;;;;;;;4941113;28;20511;-78
2022/04/28 09:36:34;;;;;;;2.38;1.85;;;;;;;;;;4990640;28;20450;-79
2022/04/28 09:39:12;;;;;;;5.57;2.35;;;;;;;;;;4956903;28;20052;-78
2022/04/28 09:44:30;;;;;;;3.13;2.35;;;;;;;;;;4974432;28;20077;-78
2022/04/28 09:47:10;;;;;;;4.97;4.32;;;;;;;;;;4973683;28;20046;-78
2022/04/28 09:49:36;;;;;;;2.80;2.40;;;;;;;;;;4972927;28;20058;-79
2022/04/28 09:52:31;;;;;;;2.50;2.30;;;;;;;;;;4956628;28;20141;-78
2022/04/28 09:55:17;;;;;;;2.53;2.33;;;;;;;;;;4990277;28;20050;-77
2022/04/28 09:58:07;;;;;;;2.30;2.20;;;;;;;;;;4970538;28;20038;-78
2022/04/28 10:00:33;;;;;;;2.30;2.10;;;;;;;;;;4989173;28;20051;-77
2022/04/28 10:03:02;;;;;;;5.07;2.60;;;;;;;;;;4988900;28;20393;-78
2022/04/28 10:05:31;;;;;;;2.30;2.20;;;;;;;;;;4989042;28;20057;-77
2022/04/28 10:08:19;;;;;;;3.38;2.40;;;;;;;;;;4989824;28;20511;-78
2022/04/28 10:10:46;;;;;;;2.95;2.75;;;;;;;;;;4974438;28;20046;-77
2022/04/28 10:13:12;;;;;;;4.22;2.65;;;;;;;;;;4973737;28;20047;-80
2022/04/28 10:15:45;;;;;;;2.67;2.47;;;;;;;;;;4989121;28;20105;-78
2022/04/28 10:18:11;;;;;;;6.03;2.65;;;;;;;;;;4972328;28;20043;-78
2022/04/28 10:20:38;;;;;;;4.78;2.78;;;;;;;;;;4972671;28;20042;-78
2022/04/28 10:23:07;;;;;;;2.50;2.22;;;;;;;;;;4956541;28;20184;-78
2022/04/28 10:34:28;;;;;;;2.55;2.35;;;;;;;;;;4990709;28;20050;-78
2022/04/28 10:36:59;;;;;;;3.42;2.50;;;;;;;;;;4992648;28;20049;-78
2022/04/28 10:39:38;;;;;;;3.63;2.30;;;;;;;;;;4991629;28;20585;-78
2022/04/28 10:42:22;;;;;;;5.25;2.42;;;;;;;;;;4990480;28;20047;-78
2022/04/28 10:44:50;;;;;;;3.97;2.17;;;;;;;;;;4976004;28;20077;-78
2022/04/28 10:47:20;;;;;;;5.07;2.58;;;;;;;;;;4985774;28;20105;-78
2022/04/28 10:49:51;;;;;;;3.47;2.85;;;;;;;;;;5013440;28;20057;-77
2022/04/28 10:52:21;;;;;;;2.80;2.60;;;;;;;;;;4979480;28;20537;-82
2022/04/28 10:54:47;;;;;;;5.95;3.22;;;;;;;;;;5011983;28;20522;-78
2022/04/28 10:57:13;;;;;;;3.00;1.70;;;;;;;;;;4979057;28;20128;-79
2022/04/28 10:59:39;;;;;;;2.60;2.40;;;;;;;;;;4995524;28;20100;-79
2022/04/28 11:02:15;;;;;;;3.65;2.40;;;;;;;;;;4979497;28;20050;-78
2022/04/28 11:04:42;;;;;;;5.05;2.50;;;;;;;;;;4995514;28;20042;-78
2022/04/28 11:07:08;;;;;;;4.60;2.20;;;;;;;;;;4995894;28;20502;-78
2022/04/28 11:09:35;;;;;;;1.98;1.77;;;;;;;;;;4995346;28;20065;-78
2022/04/28 11:12:08;;;;;;;3.45;2.60;;;;;;;;;;5012139;28;20034;-78
2022/04/28 11:14:47;;;;;;;3.53;2.30;;;;;;;;;;4996169;28;20046;-77
2022/04/28 11:17:13;;;;;;;4.03;2.22;;;;;;;;;;5012235;28;20053;-78
2022/04/28 11:19:43;;;;;;;2.85;2.45;;;;;;;;;;5009187;28;20034;-78
2022/04/28 11:22:11;;;;;;;2.25;2.08;;;;;;;;;;5013591;28;20037;-78
2022/04/28 11:24:42;;;;;;;2.80;2.47;;;;;;;;;;5011614;28;20050;-79
2022/04/28 11:27:20;;;;;;;2.13;1.93;;;;;;;;;;4979397;28;20042;-78
2022/04/28 11:29:58;;;;;;;2.60;2.30;;;;;;;;;;4999032;28;20054;-80
2022/04/28 11:32:24;;;;;;;3.45;2.10;;;;;;;;;;5020776;28;20063;-80
2022/04/28 11:34:51;;;;;;;4.55;2.50;;;;;;;;;;5023341;28;20049;-81
2022/04/28 11:37:17;;;;;;;8.13;2.58;;;;;;;;;;5019609;28;20026;-80
2022/04/28 11:39:44;;;;;;;3.80;2.60;;;;;;;;;;5013161;28;20045;-80
2022/04/28 11:42:11;;;;;;;2.35;2.25;;;;;;;;;;5012550;28;20036;-82
2022/04/28 11:44:51;;;;;;;2.10;1.95;;;;;;;;;;5011976;28;20514;-80
2022/04/28 11:47:17;;;;;;;6.10;2.42;;;;;;;;;;5008501;28;20042;-81
2022/04/28 11:50:13;;;;;;;6.38;3.08;;;;;;;;;;5011136;28;20157;-81
2022/04/28 11:52:39;;;;;;;3.42;2.28;;;;;;;;;;4981547;28;20030;-81
2022/04/28 11:55:06;;;;;;;3.10;2.15;;;;;;;;;;4995089;28;20041;-81
2022/04/28 11:57:32;;;;;;;2.60;2.40;;;;;;;;;;5012112;28;20042;-80
2022/04/28 11:59:58;;;;;;;5.43;2.45;;;;;;;;;;4977979;28;20152;-80
2022/04/28 12:02:32;;;;;;;1.95;1.85;;;;;;;;;;4995737;28;20474;-80
2022/04/28 12:04:59;;;;;;;4.10;2.92;;;;;;;;;;5011842;28;20422;-81
2022/04/28 12:07:29;;;;;;;4.10;2.20;;;;;;;;;;4995318;28;20104;-80
2022/04/28 12:15:24;;;;;;;4.63;2.55;;;;;;;;;;5010732;28;20046;-80
2022/04/28 12:20:41;;;;;;;;;;;;;;;;;;4992597;28;20050;-80
2022/04/28 12:23:07;;;;;;;3.63;2.38;;;;;;;;;;5010988;28;19918;-80
2022/04/28 12:25:38;;;;;;;4.05;2.92;;;;;;;;;;5010032;28;20052;-80
2022/04/28 12:28:05;;;;;;;2.77;2.33;;;;;;;;;;4994143;28;20068;-79
2022/04/28 12:30:35;;;;;;;10.23;2.85;;;;;;;;;;4994255;28;20048;-80
2022/04/28 12:33:03;;;;;;;3.42;2.80;;;;;;;;;;4994409;28;20065;-79
2022/04/28 12:35:30;;;;;;;7.40;3.10;;;;;;;;;;4979435;28;20042;-79
2022/04/28 12:38:00;;;;;;;2.53;2.33;;;;;;;;;;4977363;28;20069;-79
2022/04/28 12:40:26;;;;;;;2.93;2.73;;;;;;;;;;4993538;28;20045;-80
2022/04/28 12:42:54;;;;;;;3.25;2.40;;;;;;;;;;4992569;28;20273;-79
2022/04/28 12:45:40;;;;;;;3.03;2.83;;;;;;;;;;5010553;28;20037;-79
2022/04/28 12:48:08;;;;;;;4.82;2.38;;;;;;;;;;5006839;28;20112;-79
2022/04/28 12:50:34;;;;;;;3.55;2.70;;;;;;;;;;4977003;28;20423;-79
2022/04/28 12:53:01;;;;;;;3.50;2.47;;;;;;;;;;5010992;28;20061;-79
2022/04/28 12:55:34;;;;;;;2.95;2.70;;;;;;;;;;4993018;28;20578;-77
2022/04/28 12:58:00;;;;;;;3.17;2.88;;;;;;;;;;4960529;28;20033;-79
2022/04/28 13:00:26;;;;;;;3.97;2.90;;;;;;;;;;4992630;28;20033;-79
2022/04/28 13:02:52;;;;;;;1.95;1.85;;;;;;;;;;5010609;28;20041;-79
2022/04/28 13:05:18;;;;;;;3.63;2.55;;;;;;;;;;4992545;28;20042;-80
2022/04/28 13:07:44;;;;;;;3.95;2.75;;;;;;;;;;4992736;28;20488;-79
2022/04/28 13:10:12;;;;;;;6.43;3.13;;;;;;;;;;4992723;28;20148;-79
2022/04/28 13:12:38;;;;;;;2.58;2.22;;;;;;;;;;4993646;28;20429;-79
2022/04/28 13:15:05;;;;;;;2.70;2.47;;;;;;;;;;4993177;28;20158;-80
2022/04/28 13:17:31;;;;;;;4.95;2.67;;;;;;;;;;5010494;28;20061;-79
2022/04/28 13:19:57;;;;;;;2.70;2.50;;;;;;;;;;4997118;28;20041;-79
2022/04/28 13:22:22;;;;;;;2.97;2.78;;;;;;;;;;4977218;28;20038;-80
2022/04/28 13:24:48;;;;;;;3.75;3.45;;;;;;;;;;5010214;28;20053;-79
2022/04/28 13:27:14;;;;;;;3.90;2.90;;;;;;;;;;5017467;28;20128;-80
2022/04/28 13:29:41;;;;;;;2.15;1.92;;;;;;;;;;5019099;28;20049;-79
2022/04/28 13:32:09;;;;;;;3.00;2.70;;;;;;;;;;5017646;28;20518;-80
2022/04/28 13:34:35;;;;;;;8.18;2.50;;;;;;;;;;5002191;28;20153;-79
2022/04/28 13:37:02;;;;;;;4.85;2.75;;;;;;;;;;5000856;28;20578;-80
2022/04/28 13:39:28;;;;;;;5.80;2.60;;;;;;;;;;4994087;28;20096;-79
2022/04/28 13:41:54;;;;;;;2.83;2.63;;;;;;;;;;4992487;28;20038;-80
2022/04/28 13:44:20;;;;;;;5.25;3.13;;;;;;;;;;4992499;28;20794;-80
2022/04/28 13:46:46;;;;;;;6.80;4.43;;;;;;;;;;4992554;28;20533;-80
2022/04/28 13:49:12;;;;;;;3.20;3.00;;;;;;;;;;5009991;28;20065;-79
2022/04/28 13:51:39;;;;;;;4.13;3.00;;;;;;;;;;5009946;28;20030;-79
2022/04/28 13:54:05;;;;;;;3.22;3.03;;;;;;;;;;4992749;28;20104;-79
2022/04/28 13:56:31;;;;;;;5.82;2.45;;;;;;;;;;5009707;28;20068;-79
2022/04/28 13:58:57;;;;;;;2.17;2.00;;;;;;;;;;4992439;28;20510;-79
2022/04/28 14:01:23;;;;;;;3.95;2.65;;;;;;;;;;4988488;28;20101;-79
2022/04/28 14:03:48;;;;;;;2.90;2.67;;;;;;;;;;5009660;28;20587;-79
2022/04/28 14:06:15;;;;;;;2.83;2.63;;;;;;;;;;4991819;28;20814;-80
2022/04/28 14:08:42;;;;;;;3.25;3.05;;;;;;;;;;5009272;28;20049;-81
2022/04/28 14:11:08;;;;;;;2.92;2.63;;;;;;;;;;4992395;28;20045;-78
2022/04/28 14:13:34;;;;;;;3.30;2.90;;;;;;;;;;5007255;28;20045;-82
2022/04/28 14:16:00;;;;;;;4.38;3.03;;;;;;;;;;4990129;28;20045;-79
2022/04/28 14:18:26;;;;;;;3.58;2.88;;;;;;;;;;5007775;28;20041;-80
2022/04/28 14:20:52;;;;;;;4.53;2.72;;;;;;;;;;4991680;28;20069;-80
2022/04/28 14:23:18;;;;;;;3.15;2.80;;;;;;;;;;5008410;28;20088;-81
2022/04/28 14:25:45;;;;;;;3.70;2.67;;;;;;;;;;4991670;28;20049;-79
2022/04/28 14:28:11;;;;;;;3.28;2.88;;;;;;;;;;5007896;28;20136;-81
2022/04/28 14:30:37;;;;;;;4.40;3.70;;;;;;;;;;5007567;28;20080;-79
2022/04/28 14:33:03;;;;;;;4.57;4.18;;;;;;;;;;5009384;28;20073;-80
2022/04/28 14:35:29;;;;;;;4.78;3.42;;;;;;;;;;4989856;28;20117;-79
2022/04/28 14:37:55;;;;;;;3.08;2.88;;;;;;;;;;4992169;28;20128;-80
2022/04/28 14:40:21;;;;;;;8.38;3.22;;;;;;;;;;4991362;28;20517;-81
2022/04/28 14:42:49;;;;;;;6.47;2.92;;;;;;;;;;5009164;28;20049;-80
2022/04/28 14:45:15;;;;;;;4.38;2.95;;;;;;;;;;4991695;28;20065;-80
2022/04/28 14:47:41;;;;;;;3.80;3.40;;;;;;;;;;4991083;28;20080;-79
2022/04/28 14:52:52;;;;;;;2.92;2.72;;;;;;;;;;5006824;28;20405;-79
2022/04/28 14:55:18;;;;;;;3.13;2.83;;;;;;;;;;4991732;28;20037;-79
2022/04/28 14:57:46;;;;;;;7.45;3.03;;;;;;;;;;5007663;28;20516;-79
2022/04/28 15:00:16;;;;;;;7.05;3.58;;;;;;;;;;4975954;28;20399;-80
2022/04/28 15:02:42;;;;;;;4.20;3.47;;;;;;;;;;4992805;28;20038;-80
2022/04/28 15:05:08;;;;;;;5.05;3.22;;;;;;;;;;4992684;28;20077;-79
2022/04/28 15:07:34;;;;;;;5.72;3.08;;;;;;;;;;4976132;28;20534;-80
2022/04/28 15:10:02;;;;;;;3.58;3.28;;;;;;;;;;5016193;28;20073;-79
2022/04/28 15:12:29;;;;;;;3.63;3.25;;;;;;;;;;5018449;28;20045;-78
2022/04/28 15:14:59;;;;;;;3.30;3.10;;;;;;;;;;5000966;28;20042;-79
2022/04/28 15:17:25;;;;;;;3.95;3.55;;;;;;;;;;5009246;28;20045;-79
2022/04/28 15:19:51;;;;;;;3.42;3.20;;;;;;;;;;5006172;28;20045;-79
2022/04/28 15:22:17;;;;;;;5.53;3.10;;;;;;;;;;4992838;28;20049;-79
2022/04/28 15:24:44;;;;;;;8.30;3.40;;;;;;;;;;5009188;28;20042;-79
2022/04/28 15:27:11;;;;;;;4.38;3.13;;;;;;;;;;5008339;28;20054;-79
2022/04/28 15:29:37;;;;;;;5.57;3.15;;;;;;;;;;5009349;28;20457;-79
2022/04/28 15:32:04;;;;;;;5.82;3.22;;;;;;;;;;4994887;28;20100;-79
2022/04/28 15:34:30;;;;;;;5.40;3.03;;;;;;;;;;4994065;28;20089;-78
2022/04/28 15:36:56;;;;;;;3.35;3.05;;;;;;;;;;4978395;28;20046;-80
2022/04/28 15:39:22;;;;;;;5.32;3.00;;;;;;;;;;5011893;28;20041;-80
2022/04/28 15:41:47;;;;;;;3.15;2.75;;;;;;;;;;5011779;28;20041;-80
2022/04/28 15:44:13;;;;;;;6.82;3.38;;;;;;;;;;4994502;28;20446;-79
2022/04/28 15:46:40;;;;;;;3.17;2.58;;;;;;;;;;4977449;28;20052;-79